sensor_id;sensor_type;location;lat;lon;timestamp;P1;durP1;ratioP1;P2;durP2;ratioP2
9508;SDS011;4792;50.088;8.122;2023-08-12T00:00:48;16.73;;;11.43;;
9508;SDS011;4792;50.088;8.122;2023-08-12T00:03:16;9.35;;;5.57;;
9508;SDS011;4792;50.088;8.122;2023-08-12T00:05:45;4.82;;;3.65;;
9508;SDS011;4792;50.088;8.122;2023-08-12T00:08:12;3.97;;;3.13;;
9508;SDS011;4792;50.088;8.122;2023-08-12T00:10:41;4.13;;;3.30;;
9508;SDS011;4792;50.088;8.122;2023-08-12T00:13:09;4.00;;;3.30;;
9508;SDS011;4792;50.088;8.122;2023-08-12T00:15:39;3.50;;;3.03;;
9508;SDS011;4792;50.088;8.122;2023-08-12T00:18:07;3.42;;;2.90;;
9508;SDS011;4792;50.088;8.122;2023-08-12T00:20:35;3.70;;;3.28;;
9508;SDS011;4792;50.088;8.122;2023-08-12T00:23:04;4.10;;;2.88;;
9508;SDS011;4792;50.088;8.122;2023-08-12T00:25:32;4.78;;;3.22;;
9508;SDS011;4792;50.088;8.122;2023-08-12T00:28:01;5.40;;;3.35;;
9508;SDS011;4792;50.088;8.122;2023-08-12T00:30:29;3.55;;;2.80;;
9508;SDS011;4792;50.088;8.122;2023-08-12T00:32:56;4.15;;;3.15;;
9508;SDS011;4792;50.088;8.122;2023-08-12T00:35:24;3.60;;;2.85;;
9508;SDS011;4792;50.088;8.122;2023-08-12T00:37:52;3.85;;;2.95;;
9508;SDS011;4792;50.088;8.122;2023-08-12T00:40:19;3.35;;;3.05;;
9508;SDS011;4792;50.088;8.122;2023-08-12T00:42:47;5.38;;;3.38;;
9508;SDS011;4792;50.088;8.122;2023-08-12T00:45:16;3.78;;;3.10;;
9508;SDS011;4792;50.088;8.122;2023-08-12T00:47:44;6.45;;;3.30;;
9508;SDS011;4792;50.088;8.122;2023-08-12T00:50:12;5.10;;;3.38;;
9508;SDS011;4792;50.088;8.122;2023-08-12T00:52:41;4.53;;;3.30;;
9508;SDS011;4792;50.088;8.122;2023-08-12T00:55:09;5.53;;;3.08;;
9508;SDS011;4792;50.088;8.122;2023-08-12T00:57:37;3.67;;;3.00;;
9508;SDS011;4792;50.088;8.122;2023-08-12T01:00:05;4.95;;;3.30;;
9508;SDS011;4792;50.088;8.122;2023-08-12T01:02:35;4.70;;;3.53;;
9508;SDS011;4792;50.088;8.122;2023-08-12T01:05:04;3.42;;;3.13;;
9508;SDS011;4792;50.088;8.122;2023-08-12T01:07:32;3.72;;;3.30;;
9508;SDS011;4792;50.088;8.122;2023-08-12T01:10:00;3.60;;;3.08;;
9508;SDS011;4792;50.088;8.122;2023-08-12T01:12:29;3.25;;;2.95;;
9508;SDS011;4792;50.088;8.122;2023-08-12T01:15:01;5.15;;;3.28;;
9508;SDS011;4792;50.088;8.122;2023-08-12T01:17:33;3.15;;;2.83;;
9508;SDS011;4792;50.088;8.122;2023-08-12T01:20:03;4.85;;;3.22;;
9508;SDS011;4792;50.088;8.122;2023-08-12T01:22:34;4.07;;;3.20;;
9508;SDS011;4792;50.088;8.122;2023-08-12T01:25:07;4.10;;;3.58;;
9508;SDS011;4792;50.088;8.122;2023-08-12T01:27:35;4.55;;;3.47;;
9508;SDS011;4792;50.088;8.122;2023-08-12T01:30:04;3.50;;;3.20;;
9508;SDS011;4792;50.088;8.122;2023-08-12T01:32:34;5.63;;;3.47;;
9508;SDS011;4792;50.088;8.122;2023-08-12T01:35:06;5.22;;;3.90;;
9508;SDS011;4792;50.088;8.122;2023-08-12T01:37:38;6.10;;;3.83;;
9508;SDS011;4792;50.088;8.122;2023-08-12T01:40:08;4.00;;;3.50;;
9508;SDS011;4792;50.088;8.122;2023-08-12T01:42:37;3.58;;;3.08;;
9508;SDS011;4792;50.088;8.122;2023-08-12T01:45:06;5.65;;;3.45;;
9508;SDS011;4792;50.088;8.122;2023-08-12T01:47:34;3.28;;;2.88;;
9508;SDS011;4792;50.088;8.122;2023-08-12T01:50:02;3.28;;;2.97;;
9508;SDS011;4792;50.088;8.122;2023-08-12T01:52:30;4.43;;;3.45;;
9508;SDS011;4792;50.088;8.122;2023-08-12T01:54:58;4.28;;;3.28;;
9508;SDS011;4792;50.088;8.122;2023-08-12T01:57:27;4.72;;;3.95;;
9508;SDS011;4792;50.088;8.122;2023-08-12T01:59:55;6.95;;;3.67;;
9508;SDS011;4792;50.088;8.122;2023-08-12T02:02:22;4.18;;;3.50;;
9508;SDS011;4792;50.088;8.122;2023-08-12T02:04:50;4.72;;;3.90;;
9508;SDS011;4792;50.088;8.122;2023-08-12T02:07:18;5.18;;;3.50;;
9508;SDS011;4792;50.088;8.122;2023-08-12T02:09:45;6.93;;;4.00;;
9508;SDS011;4792;50.088;8.122;2023-08-12T02:12:13;7.20;;;3.70;;
9508;SDS011;4792;50.088;8.122;2023-08-12T02:14:42;8.23;;;4.22;;
9508;SDS011;4792;50.088;8.122;2023-08-12T02:17:10;4.93;;;3.90;;
9508;SDS011;4792;50.088;8.122;2023-08-12T02:19:38;13.25;;;4.30;;
9508;SDS011;4792;50.088;8.122;2023-08-12T02:22:06;5.93;;;4.22;;
9508;SDS011;4792;50.088;8.122;2023-08-12T02:24:33;6.47;;;4.63;;
9508;SDS011;4792;50.088;8.122;2023-08-12T02:27:01;6.53;;;4.80;;
9508;SDS011;4792;50.088;8.122;2023-08-12T02:29:29;9.50;;;5.27;;
9508;SDS011;4792;50.088;8.122;2023-08-12T02:31:58;7.57;;;5.40;;
9508;SDS011;4792;50.088;8.122;2023-08-12T02:34:25;5.87;;;5.10;;
9508;SDS011;4792;50.088;8.122;2023-08-12T02:36:53;8.97;;;6.73;;
9508;SDS011;4792;50.088;8.122;2023-08-12T02:39:21;11.43;;;7.50;;
9508;SDS011;4792;50.088;8.122;2023-08-12T02:41:48;11.47;;;9.30;;
9508;SDS011;4792;50.088;8.122;2023-08-12T02:44:16;15.23;;;11.37;;
9508;SDS011;4792;50.088;8.122;2023-08-12T02:46:44;17.80;;;13.67;;
9508;SDS011;4792;50.088;8.122;2023-08-12T02:49:13;18.10;;;14.80;;
9508;SDS011;4792;50.088;8.122;2023-08-12T02:51:41;17.37;;;12.07;;
9508;SDS011;4792;50.088;8.122;2023-08-12T02:54:09;15.90;;;11.87;;
9508;SDS011;4792;50.088;8.122;2023-08-12T02:56:36;15.77;;;10.43;;
9508;SDS011;4792;50.088;8.122;2023-08-12T02:59:04;12.03;;;9.70;;
9508;SDS011;4792;50.088;8.122;2023-08-12T03:01:32;9.57;;;8.57;;
9508;SDS011;4792;50.088;8.122;2023-08-12T03:04:00;12.20;;;7.70;;
9508;SDS011;4792;50.088;8.122;2023-08-12T03:06:28;8.20;;;7.27;;
9508;SDS011;4792;50.088;8.122;2023-08-12T03:08:56;6.97;;;6.27;;
9508;SDS011;4792;50.088;8.122;2023-08-12T03:11:24;9.27;;;6.63;;
9508;SDS011;4792;50.088;8.122;2023-08-12T03:13:52;8.20;;;6.03;;
9508;SDS011;4792;50.088;8.122;2023-08-12T03:16:19;7.07;;;6.37;;
9508;SDS011;4792;50.088;8.122;2023-08-12T03:18:47;6.00;;;5.40;;
9508;SDS011;4792;50.088;8.122;2023-08-12T03:21:14;6.60;;;4.83;;
9508;SDS011;4792;50.088;8.122;2023-08-12T03:23:44;5.87;;;4.70;;
9508;SDS011;4792;50.088;8.122;2023-08-12T03:26:11;6.13;;;5.00;;
9508;SDS011;4792;50.088;8.122;2023-08-12T03:28:40;5.33;;;4.60;;
9508;SDS011;4792;50.088;8.122;2023-08-12T03:31:08;4.87;;;4.47;;
9508;SDS011;4792;50.088;8.122;2023-08-12T03:33:35;4.83;;;4.33;;
9508;SDS011;4792;50.088;8.122;2023-08-12T03:36:03;6.63;;;4.37;;
9508;SDS011;4792;50.088;8.122;2023-08-12T03:38:31;4.90;;;4.30;;
9508;SDS011;4792;50.088;8.122;2023-08-12T03:41:00;4.87;;;4.37;;
9508;SDS011;4792;50.088;8.122;2023-08-12T03:43:28;5.20;;;4.47;;
9508;SDS011;4792;50.088;8.122;2023-08-12T03:45:56;6.40;;;3.90;;
9508;SDS011;4792;50.088;8.122;2023-08-12T03:48:23;5.90;;;4.50;;
9508;SDS011;4792;50.088;8.122;2023-08-12T03:50:51;4.33;;;3.93;;
9508;SDS011;4792;50.088;8.122;2023-08-12T03:53:19;6.67;;;4.20;;
9508;SDS011;4792;50.088;8.122;2023-08-12T03:55:47;5.70;;;4.70;;
9508;SDS011;4792;50.088;8.122;2023-08-12T03:58:16;5.13;;;4.60;;
9508;SDS011;4792;50.088;8.122;2023-08-12T04:00:44;6.17;;;4.70;;
9508;SDS011;4792;50.088;8.122;2023-08-12T04:03:12;4.90;;;4.40;;
9508;SDS011;4792;50.088;8.122;2023-08-12T04:05:46;5.77;;;4.93;;
9508;SDS011;4792;50.088;8.122;2023-08-12T04:08:14;5.20;;;4.23;;
9508;SDS011;4792;50.088;8.122;2023-08-12T04:10:44;4.57;;;4.00;;
9508;SDS011;4792;50.088;8.122;2023-08-12T04:13:12;6.23;;;4.43;;
9508;SDS011;4792;50.088;8.122;2023-08-12T04:15:41;6.23;;;3.87;;
9508;SDS011;4792;50.088;8.122;2023-08-12T04:18:09;6.70;;;4.50;;
9508;SDS011;4792;50.088;8.122;2023-08-12T04:20:37;5.23;;;4.10;;
9508;SDS011;4792;50.088;8.122;2023-08-12T04:23:05;4.40;;;4.00;;
9508;SDS011;4792;50.088;8.122;2023-08-12T04:25:33;5.77;;;4.43;;
9508;SDS011;4792;50.088;8.122;2023-08-12T04:28:01;4.93;;;4.43;;
9508;SDS011;4792;50.088;8.122;2023-08-12T04:30:28;4.17;;;3.63;;
9508;SDS011;4792;50.088;8.122;2023-08-12T04:32:57;5.10;;;3.93;;
9508;SDS011;4792;50.088;8.122;2023-08-12T04:35:25;5.32;;;4.22;;
9508;SDS011;4792;50.088;8.122;2023-08-12T04:37:53;4.40;;;4.00;;
9508;SDS011;4792;50.088;8.122;2023-08-12T04:40:20;4.50;;;4.10;;
9508;SDS011;4792;50.088;8.122;2023-08-12T04:42:48;5.10;;;3.85;;
9508;SDS011;4792;50.088;8.122;2023-08-12T04:45:16;4.00;;;3.60;;
9508;SDS011;4792;50.088;8.122;2023-08-12T04:47:44;3.97;;;3.60;;
9508;SDS011;4792;50.088;8.122;2023-08-12T04:50:13;5.43;;;3.72;;
9508;SDS011;4792;50.088;8.122;2023-08-12T04:52:41;4.63;;;3.60;;
9508;SDS011;4792;50.088;8.122;2023-08-12T04:55:08;4.28;;;3.50;;
9508;SDS011;4792;50.088;8.122;2023-08-12T04:57:37;4.95;;;3.53;;
9508;SDS011;4792;50.088;8.122;2023-08-12T05:00:05;3.40;;;3.10;;
9508;SDS011;4792;50.088;8.122;2023-08-12T05:02:34;4.05;;;3.13;;
9508;SDS011;4792;50.088;8.122;2023-08-12T05:05:02;3.53;;;3.17;;
9508;SDS011;4792;50.088;8.122;2023-08-12T05:07:32;3.83;;;3.35;;
9508;SDS011;4792;50.088;8.122;2023-08-12T05:10:03;3.85;;;3.03;;
9508;SDS011;4792;50.088;8.122;2023-08-12T05:12:32;3.78;;;3.33;;
9508;SDS011;4792;50.088;8.122;2023-08-12T05:15:00;4.40;;;3.30;;
9508;SDS011;4792;50.088;8.122;2023-08-12T05:17:27;3.40;;;3.00;;
9508;SDS011;4792;50.088;8.122;2023-08-12T05:19:55;3.60;;;3.30;;
9508;SDS011;4792;50.088;8.122;2023-08-12T05:22:23;3.80;;;3.20;;
9508;SDS011;4792;50.088;8.122;2023-08-12T05:24:52;3.90;;;3.43;;
9508;SDS011;4792;50.088;8.122;2023-08-12T05:27:20;3.53;;;3.23;;
9508;SDS011;4792;50.088;8.122;2023-08-12T05:29:48;3.78;;;3.47;;
9508;SDS011;4792;50.088;8.122;2023-08-12T05:32:15;3.60;;;3.30;;
9508;SDS011;4792;50.088;8.122;2023-08-12T05:34:43;3.57;;;3.07;;
9508;SDS011;4792;50.088;8.122;2023-08-12T05:37:10;5.93;;;3.00;;
9508;SDS011;4792;50.088;8.122;2023-08-12T05:39:38;3.77;;;3.27;;
9508;SDS011;4792;50.088;8.122;2023-08-12T05:42:07;6.60;;;3.50;;
9508;SDS011;4792;50.088;8.122;2023-08-12T05:44:35;3.80;;;3.40;;
9508;SDS011;4792;50.088;8.122;2023-08-12T05:47:03;4.87;;;4.00;;
9508;SDS011;4792;50.088;8.122;2023-08-12T05:49:31;5.83;;;4.00;;
9508;SDS011;4792;50.088;8.122;2023-08-12T05:51:59;4.87;;;4.37;;
9508;SDS011;4792;50.088;8.122;2023-08-12T05:54:26;11.90;;;7.27;;
9508;SDS011;4792;50.088;8.122;2023-08-12T05:56:54;50.10;;;9.67;;
9508;SDS011;4792;50.088;8.122;2023-08-12T05:59:26;41.83;;;11.20;;
9508;SDS011;4792;50.088;8.122;2023-08-12T06:01:54;56.60;;;11.83;;
9508;SDS011;4792;50.088;8.122;2023-08-12T06:04:22;198.37;;;17.07;;
9508;SDS011;4792;50.088;8.122;2023-08-12T06:06:49;232.63;;;19.80;;
9508;SDS011;4792;50.088;8.122;2023-08-12T06:09:17;135.83;;;17.87;;
9508;SDS011;4792;50.088;8.122;2023-08-12T06:11:45;13.83;;;12.40;;
9508;SDS011;4792;50.088;8.122;2023-08-12T06:14:13;27.47;;;15.03;;
9508;SDS011;4792;50.088;8.122;2023-08-12T06:16:42;17.10;;;15.33;;
9508;SDS011;4792;50.088;8.122;2023-08-12T06:19:09;42.60;;;17.93;;
9508;SDS011;4792;50.088;8.122;2023-08-12T06:21:37;144.57;;;21.17;;
9508;SDS011;4792;50.088;8.122;2023-08-12T06:24:05;18.07;;;15.83;;
9508;SDS011;4792;50.088;8.122;2023-08-12T06:26:33;18.70;;;16.10;;
9508;SDS011;4792;50.088;8.122;2023-08-12T06:29:01;19.03;;;17.20;;
9508;SDS011;4792;50.088;8.122;2023-08-12T06:31:31;25.97;;;17.70;;
9508;SDS011;4792;50.088;8.122;2023-08-12T06:34:00;18.43;;;16.63;;
9508;SDS011;4792;50.088;8.122;2023-08-12T06:36:28;19.13;;;17.13;;
9508;SDS011;4792;50.088;8.122;2023-08-12T06:38:56;19.07;;;16.90;;
9508;SDS011;4792;50.088;8.122;2023-08-12T06:41:25;20.30;;;18.30;;
9508;SDS011;4792;50.088;8.122;2023-08-12T06:43:53;17.23;;;14.23;;
9508;SDS011;4792;50.088;8.122;2023-08-12T06:46:21;24.40;;;18.33;;
9508;SDS011;4792;50.088;8.122;2023-08-12T06:48:49;20.57;;;18.47;;
9508;SDS011;4792;50.088;8.122;2023-08-12T06:51:18;32.17;;;19.07;;
9508;SDS011;4792;50.088;8.122;2023-08-12T06:53:46;20.67;;;18.47;;
9508;SDS011;4792;50.088;8.122;2023-08-12T06:56:13;20.03;;;18.03;;
9508;SDS011;4792;50.088;8.122;2023-08-12T06:58:41;21.20;;;19.00;;
9508;SDS011;4792;50.088;8.122;2023-08-12T07:01:08;18.97;;;17.07;;
9508;SDS011;4792;50.088;8.122;2023-08-12T07:03:40;17.40;;;15.70;;
9508;SDS011;4792;50.088;8.122;2023-08-12T07:06:08;16.00;;;14.50;;
9508;SDS011;4792;50.088;8.122;2023-08-12T07:08:37;15.27;;;13.87;;
9508;SDS011;4792;50.088;8.122;2023-08-12T07:11:05;12.43;;;11.10;;
9508;SDS011;4792;50.088;8.122;2023-08-12T07:13:33;16.60;;;14.90;;
9508;SDS011;4792;50.088;8.122;2023-08-12T07:16:00;13.23;;;10.83;;
9508;SDS011;4792;50.088;8.122;2023-08-12T07:18:28;15.40;;;13.90;;
9508;SDS011;4792;50.088;8.122;2023-08-12T07:20:57;12.17;;;10.97;;
9508;SDS011;4792;50.088;8.122;2023-08-12T07:23:26;11.53;;;10.43;;
9508;SDS011;4792;50.088;8.122;2023-08-12T07:25:55;14.27;;;12.77;;
9508;SDS011;4792;50.088;8.122;2023-08-12T07:28:22;16.63;;;14.93;;
9508;SDS011;4792;50.088;8.122;2023-08-12T07:30:50;15.17;;;13.60;;
9508;SDS011;4792;50.088;8.122;2023-08-12T07:33:19;16.07;;;13.97;;
9508;SDS011;4792;50.088;8.122;2023-08-12T07:35:47;16.63;;;15.00;;
9508;SDS011;4792;50.088;8.122;2023-08-12T07:38:14;15.83;;;13.67;;
9508;SDS011;4792;50.088;8.122;2023-08-12T07:40:42;14.27;;;12.50;;
9508;SDS011;4792;50.088;8.122;2023-08-12T07:43:11;14.60;;;13.20;;
9508;SDS011;4792;50.088;8.122;2023-08-12T07:45:38;12.67;;;11.37;;
9508;SDS011;4792;50.088;8.122;2023-08-12T07:48:06;11.93;;;10.67;;
9508;SDS011;4792;50.088;8.122;2023-08-12T07:50:34;13.10;;;11.80;;
9508;SDS011;4792;50.088;8.122;2023-08-12T07:53:02;10.20;;;9.20;;
9508;SDS011;4792;50.088;8.122;2023-08-12T07:55:29;13.60;;;12.20;;
9508;SDS011;4792;50.088;8.122;2023-08-12T07:57:57;12.10;;;10.88;;
9508;SDS011;4792;50.088;8.122;2023-08-12T08:00:26;13.33;;;11.00;;
9508;SDS011;4792;50.088;8.122;2023-08-12T08:02:54;13.63;;;12.23;;
9508;SDS011;4792;50.088;8.122;2023-08-12T08:05:22;14.13;;;11.93;;
9508;SDS011;4792;50.088;8.122;2023-08-12T08:07:49;12.02;;;10.82;;
9508;SDS011;4792;50.088;8.122;2023-08-12T08:10:17;9.95;;;9.02;;
9508;SDS011;4792;50.088;8.122;2023-08-12T08:12:45;11.43;;;10.20;;
9508;SDS011;4792;50.088;8.122;2023-08-12T08:15:12;10.02;;;9.02;;
9508;SDS011;4792;50.088;8.122;2023-08-12T08:17:41;11.95;;;10.60;;
9508;SDS011;4792;50.088;8.122;2023-08-12T08:20:09;10.88;;;9.55;;
9508;SDS011;4792;50.088;8.122;2023-08-12T08:22:37;10.50;;;8.85;;
9508;SDS011;4792;50.088;8.122;2023-08-12T08:25:06;8.68;;;7.85;;
9508;SDS011;4792;50.088;8.122;2023-08-12T08:27:34;8.82;;;7.50;;
9508;SDS011;4792;50.088;8.122;2023-08-12T08:30:02;7.00;;;6.30;;
9508;SDS011;4792;50.088;8.122;2023-08-12T08:32:30;8.27;;;7.47;;
9508;SDS011;4792;50.088;8.122;2023-08-12T08:34:59;6.78;;;6.07;;
9508;SDS011;4792;50.088;8.122;2023-08-12T08:37:27;8.43;;;5.70;;
9508;SDS011;4792;50.088;8.122;2023-08-12T08:39:54;6.68;;;5.53;;
9508;SDS011;4792;50.088;8.122;2023-08-12T08:42:22;6.85;;;6.10;;
9508;SDS011;4792;50.088;8.122;2023-08-12T08:44:51;5.53;;;4.55;;
9508;SDS011;4792;50.088;8.122;2023-08-12T08:47:21;6.60;;;4.80;;
9508;SDS011;4792;50.088;8.122;2023-08-12T08:49:53;6.90;;;5.47;;
9508;SDS011;4792;50.088;8.122;2023-08-12T08:52:24;6.70;;;5.18;;
9508;SDS011;4792;50.088;8.122;2023-08-12T08:54:52;5.30;;;4.80;;
9508;SDS011;4792;50.088;8.122;2023-08-12T08:57:20;4.50;;;4.10;;
9508;SDS011;4792;50.088;8.122;2023-08-12T09:00:04;5.82;;;4.88;;
9508;SDS011;4792;50.088;8.122;2023-08-12T09:02:38;6.63;;;4.68;;
9508;SDS011;4792;50.088;8.122;2023-08-12T09:05:07;5.80;;;4.63;;
9508;SDS011;4792;50.088;8.122;2023-08-12T09:07:36;8.00;;;5.60;;
9508;SDS011;4792;50.088;8.122;2023-08-12T09:10:04;6.80;;;5.97;;
9508;SDS011;4792;50.088;8.122;2023-08-12T09:12:33;8.52;;;6.35;;
9508;SDS011;4792;50.088;8.122;2023-08-12T09:15:03;6.90;;;6.10;;
9508;SDS011;4792;50.088;8.122;2023-08-12T09:17:32;6.60;;;5.78;;
9508;SDS011;4792;50.088;8.122;2023-08-12T09:20:00;7.22;;;5.80;;
9508;SDS011;4792;50.088;8.122;2023-08-12T09:22:29;6.88;;;6.22;;
9508;SDS011;4792;50.088;8.122;2023-08-12T09:24:59;6.22;;;5.63;;
9508;SDS011;4792;50.088;8.122;2023-08-12T09:27:27;7.75;;;6.55;;
9508;SDS011;4792;50.088;8.122;2023-08-12T09:29:55;6.43;;;5.60;;
9508;SDS011;4792;50.088;8.122;2023-08-12T09:32:23;7.00;;;5.90;;
9508;SDS011;4792;50.088;8.122;2023-08-12T09:34:51;6.90;;;5.93;;
9508;SDS011;4792;50.088;8.122;2023-08-12T09:37:21;6.47;;;4.85;;
9508;SDS011;4792;50.088;8.122;2023-08-12T09:39:50;6.18;;;5.28;;
9508;SDS011;4792;50.088;8.122;2023-08-12T09:42:19;6.10;;;4.82;;
9508;SDS011;4792;50.088;8.122;2023-08-12T09:44:47;5.07;;;4.55;;
9508;SDS011;4792;50.088;8.122;2023-08-12T09:47:15;6.30;;;5.15;;
9508;SDS011;4792;50.088;8.122;2023-08-12T09:49:42;6.82;;;4.07;;
9508;SDS011;4792;50.088;8.122;2023-08-12T09:52:10;6.25;;;5.35;;
9508;SDS011;4792;50.088;8.122;2023-08-12T09:54:40;6.38;;;4.70;;
9508;SDS011;4792;50.088;8.122;2023-08-12T09:57:09;10.05;;;5.20;;
9508;SDS011;4792;50.088;8.122;2023-08-12T09:59:40;5.72;;;5.20;;
9508;SDS011;4792;50.088;8.122;2023-08-12T10:02:07;8.05;;;5.90;;
9508;SDS011;4792;50.088;8.122;2023-08-12T10:04:41;8.55;;;6.78;;
9508;SDS011;4792;50.088;8.122;2023-08-12T10:07:09;8.45;;;5.40;;
9508;SDS011;4792;50.088;8.122;2023-08-12T10:09:39;9.10;;;6.00;;
9508;SDS011;4792;50.088;8.122;2023-08-12T10:12:07;10.60;;;7.72;;
9508;SDS011;4792;50.088;8.122;2023-08-12T10:14:36;8.25;;;7.47;;
9508;SDS011;4792;50.088;8.122;2023-08-12T10:17:05;8.65;;;7.35;;
9508;SDS011;4792;50.088;8.122;2023-08-12T10:19:35;9.98;;;8.98;;
9508;SDS011;4792;50.088;8.122;2023-08-12T10:22:03;9.20;;;8.30;;
9508;SDS011;4792;50.088;8.122;2023-08-12T10:24:31;13.63;;;8.75;;
9508;SDS011;4792;50.088;8.122;2023-08-12T10:27:01;9.52;;;8.52;;
9508;SDS011;4792;50.088;8.122;2023-08-12T10:29:29;11.38;;;9.18;;
9508;SDS011;4792;50.088;8.122;2023-08-12T10:31:57;7.72;;;6.85;;
9508;SDS011;4792;50.088;8.122;2023-08-12T10:34:28;11.43;;;8.60;;
9508;SDS011;4792;50.088;8.122;2023-08-12T10:36:56;10.10;;;8.47;;
9508;SDS011;4792;50.088;8.122;2023-08-12T10:39:30;10.17;;;8.07;;
9508;SDS011;4792;50.088;8.122;2023-08-12T10:41:59;9.10;;;8.10;;
9508;SDS011;4792;50.088;8.122;2023-08-12T10:44:27;9.73;;;8.68;;
9508;SDS011;4792;50.088;8.122;2023-08-12T10:46:55;7.47;;;6.70;;
9508;SDS011;4792;50.088;8.122;2023-08-12T10:49:25;9.38;;;7.95;;
9508;SDS011;4792;50.088;8.122;2023-08-12T10:51:54;8.40;;;7.50;;
9508;SDS011;4792;50.088;8.122;2023-08-12T10:54:23;12.00;;;8.52;;
9508;SDS011;4792;50.088;8.122;2023-08-12T10:57:08;9.60;;;8.70;;
9508;SDS011;4792;50.088;8.122;2023-08-12T10:59:53;7.55;;;6.57;;
9508;SDS011;4792;50.088;8.122;2023-08-12T11:02:22;8.63;;;7.72;;
9508;SDS011;4792;50.088;8.122;2023-08-12T11:04:54;7.15;;;6.45;;
9508;SDS011;4792;50.088;8.122;2023-08-12T11:07:28;6.10;;;5.50;;
9508;SDS011;4792;50.088;8.122;2023-08-12T11:10:03;7.60;;;4.78;;
9508;SDS011;4792;50.088;8.122;2023-08-12T11:12:32;4.10;;;3.70;;
9508;SDS011;4792;50.088;8.122;2023-08-12T11:15:01;4.60;;;3.35;;
9508;SDS011;4792;50.088;8.122;2023-08-12T11:17:34;4.60;;;4.00;;
9508;SDS011;4792;50.088;8.122;2023-08-12T11:20:03;5.75;;;3.70;;
9508;SDS011;4792;50.088;8.122;2023-08-12T11:22:35;4.43;;;3.30;;
9508;SDS011;4792;50.088;8.122;2023-08-12T11:25:05;6.25;;;3.75;;
9508;SDS011;4792;50.088;8.122;2023-08-12T11:27:36;5.80;;;3.33;;
9508;SDS011;4792;50.088;8.122;2023-08-12T11:30:08;4.07;;;3.60;;
9508;SDS011;4792;50.088;8.122;2023-08-12T11:32:37;5.78;;;3.80;;
9508;SDS011;4792;50.088;8.122;2023-08-12T11:35:06;3.33;;;3.00;;
9508;SDS011;4792;50.088;8.122;2023-08-12T11:37:37;3.70;;;2.92;;
9508;SDS011;4792;50.088;8.122;2023-08-12T11:40:05;5.55;;;3.05;;
9508;SDS011;4792;50.088;8.122;2023-08-12T11:42:35;3.70;;;2.90;;
9508;SDS011;4792;50.088;8.122;2023-08-12T11:45:04;3.38;;;2.80;;
9508;SDS011;4792;50.088;8.122;2023-08-12T11:47:33;3.63;;;2.67;;
9508;SDS011;4792;50.088;8.122;2023-08-12T11:50:01;4.32;;;3.20;;
9508;SDS011;4792;50.088;8.122;2023-08-12T11:52:30;3.22;;;2.90;;
9508;SDS011;4792;50.088;8.122;2023-08-12T11:54:59;3.47;;;2.80;;
9508;SDS011;4792;50.088;8.122;2023-08-12T11:57:27;3.92;;;3.10;;
9508;SDS011;4792;50.088;8.122;2023-08-12T11:59:57;3.63;;;3.03;;
9508;SDS011;4792;50.088;8.122;2023-08-12T12:02:26;5.60;;;3.00;;
9508;SDS011;4792;50.088;8.122;2023-08-12T12:04:53;4.13;;;3.22;;
9508;SDS011;4792;50.088;8.122;2023-08-12T12:07:21;4.13;;;2.95;;
9508;SDS011;4792;50.088;8.122;2023-08-12T12:09:50;4.18;;;2.75;;
9508;SDS011;4792;50.088;8.122;2023-08-12T12:12:23;6.18;;;3.03;;
9508;SDS011;4792;50.088;8.122;2023-08-12T12:14:51;4.22;;;2.97;;
9508;SDS011;4792;50.088;8.122;2023-08-12T12:17:20;3.75;;;2.63;;
9508;SDS011;4792;50.088;8.122;2023-08-12T12:19:53;3.60;;;2.60;;
9508;SDS011;4792;50.088;8.122;2023-08-12T12:22:25;4.00;;;2.50;;
9508;SDS011;4792;50.088;8.122;2023-08-12T12:24:54;2.88;;;2.40;;
9508;SDS011;4792;50.088;8.122;2023-08-12T12:27:23;3.65;;;2.72;;
9508;SDS011;4792;50.088;8.122;2023-08-12T12:29:51;3.63;;;3.10;;
9508;SDS011;4792;50.088;8.122;2023-08-12T12:32:19;4.63;;;3.03;;
9508;SDS011;4792;50.088;8.122;2023-08-12T12:34:47;3.53;;;3.00;;
9508;SDS011;4792;50.088;8.122;2023-08-12T12:37:15;3.17;;;2.85;;
9508;SDS011;4792;50.088;8.122;2023-08-12T12:39:42;4.15;;;3.13;;
9508;SDS011;4792;50.088;8.122;2023-08-12T12:42:10;3.63;;;3.13;;
9508;SDS011;4792;50.088;8.122;2023-08-12T12:44:40;4.80;;;3.55;;
9508;SDS011;4792;50.088;8.122;2023-08-12T12:47:08;4.00;;;3.25;;
9508;SDS011;4792;50.088;8.122;2023-08-12T12:49:37;4.45;;;3.53;;
9508;SDS011;4792;50.088;8.122;2023-08-12T12:52:05;6.18;;;3.50;;
9508;SDS011;4792;50.088;8.122;2023-08-12T12:54:32;4.95;;;3.08;;
9508;SDS011;4792;50.088;8.122;2023-08-12T12:57:00;3.58;;;2.92;;
9508;SDS011;4792;50.088;8.122;2023-08-12T12:59:28;4.57;;;3.15;;
9508;SDS011;4792;50.088;8.122;2023-08-12T13:01:57;4.22;;;3.13;;
9508;SDS011;4792;50.088;8.122;2023-08-12T13:04:24;6.90;;;3.40;;
9508;SDS011;4792;50.088;8.122;2023-08-12T13:06:52;5.60;;;3.25;;
9508;SDS011;4792;50.088;8.122;2023-08-12T13:09:20;5.85;;;3.60;;
9508;SDS011;4792;50.088;8.122;2023-08-12T13:11:47;4.03;;;3.03;;
9508;SDS011;4792;50.088;8.122;2023-08-12T13:14:15;3.67;;;3.20;;
9508;SDS011;4792;50.088;8.122;2023-08-12T13:16:45;4.13;;;3.25;;
9508;SDS011;4792;50.088;8.122;2023-08-12T13:19:14;5.95;;;3.60;;
9508;SDS011;4792;50.088;8.122;2023-08-12T13:21:42;4.78;;;3.65;;
9508;SDS011;4792;50.088;8.122;2023-08-12T13:24:10;4.28;;;3.35;;
9508;SDS011;4792;50.088;8.122;2023-08-12T13:26:38;4.05;;;3.10;;
9508;SDS011;4792;50.088;8.122;2023-08-12T13:29:06;3.97;;;3.20;;
9508;SDS011;4792;50.088;8.122;2023-08-12T13:31:33;5.13;;;3.55;;
9508;SDS011;4792;50.088;8.122;2023-08-12T13:34:01;3.33;;;2.67;;
9508;SDS011;4792;50.088;8.122;2023-08-12T13:36:31;4.72;;;3.33;;
9508;SDS011;4792;50.088;8.122;2023-08-12T13:38:58;3.50;;;3.13;;
9508;SDS011;4792;50.088;8.122;2023-08-12T13:41:26;5.10;;;3.30;;
9508;SDS011;4792;50.088;8.122;2023-08-12T13:43:54;3.40;;;3.00;;
9508;SDS011;4792;50.088;8.122;2023-08-12T13:46:22;3.53;;;2.90;;
9508;SDS011;4792;50.088;8.122;2023-08-12T13:48:49;5.65;;;3.58;;
9508;SDS011;4792;50.088;8.122;2023-08-12T13:51:17;4.35;;;3.20;;
9508;SDS011;4792;50.088;8.122;2023-08-12T13:53:46;4.50;;;3.20;;
9508;SDS011;4792;50.088;8.122;2023-08-12T13:56:14;7.80;;;3.22;;
9508;SDS011;4792;50.088;8.122;2023-08-12T13:58:42;7.28;;;3.58;;
9508;SDS011;4792;50.088;8.122;2023-08-12T14:01:10;4.70;;;3.28;;
9508;SDS011;4792;50.088;8.122;2023-08-12T14:03:37;3.78;;;3.20;;
9508;SDS011;4792;50.088;8.122;2023-08-12T14:06:08;5.97;;;3.10;;
9508;SDS011;4792;50.088;8.122;2023-08-12T14:08:36;5.63;;;3.40;;
9508;SDS011;4792;50.088;8.122;2023-08-12T14:11:05;3.33;;;2.72;;
9508;SDS011;4792;50.088;8.122;2023-08-12T14:13:33;6.22;;;3.30;;
9508;SDS011;4792;50.088;8.122;2023-08-12T14:16:00;3.95;;;3.38;;
9508;SDS011;4792;50.088;8.122;2023-08-12T14:18:28;7.03;;;3.30;;
9508;SDS011;4792;50.088;8.122;2023-08-12T14:20:55;4.68;;;3.63;;
9508;SDS011;4792;50.088;8.122;2023-08-12T14:23:23;3.15;;;2.85;;
9508;SDS011;4792;50.088;8.122;2023-08-12T14:25:51;3.15;;;2.80;;
9508;SDS011;4792;50.088;8.122;2023-08-12T14:28:20;3.78;;;2.33;;
9508;SDS011;4792;50.088;8.122;2023-08-12T14:30:47;4.40;;;2.78;;
9508;SDS011;4792;50.088;8.122;2023-08-12T14:33:15;7.45;;;2.47;;
9508;SDS011;4792;50.088;8.122;2023-08-12T14:35:43;5.35;;;2.90;;
9508;SDS011;4792;50.088;8.122;2023-08-12T14:38:10;3.58;;;2.40;;
9508;SDS011;4792;50.088;8.122;2023-08-12T14:40:38;3.95;;;2.28;;
9508;SDS011;4792;50.088;8.122;2023-08-12T14:43:06;6.28;;;2.40;;
9508;SDS011;4792;50.088;8.122;2023-08-12T14:45:35;8.25;;;2.15;;
9508;SDS011;4792;50.088;8.122;2023-08-12T14:48:03;3.55;;;2.40;;
9508;SDS011;4792;50.088;8.122;2023-08-12T14:50:31;3.85;;;2.30;;
9508;SDS011;4792;50.088;8.122;2023-08-12T14:52:58;4.80;;;2.47;;
9508;SDS011;4792;50.088;8.122;2023-08-12T14:55:26;4.63;;;2.40;;
9508;SDS011;4792;50.088;8.122;2023-08-12T14:57:54;4.00;;;2.38;;
9508;SDS011;4792;50.088;8.122;2023-08-12T15:00:21;4.70;;;2.50;;
9508;SDS011;4792;50.088;8.122;2023-08-12T15:02:50;3.92;;;2.40;;
9508;SDS011;4792;50.088;8.122;2023-08-12T15:05:18;3.05;;;2.42;;
9508;SDS011;4792;50.088;8.122;2023-08-12T15:07:46;3.63;;;2.13;;
9508;SDS011;4792;50.088;8.122;2023-08-12T15:10:13;4.78;;;2.40;;
9508;SDS011;4792;50.088;8.122;2023-08-12T15:12:41;4.18;;;2.10;;
9508;SDS011;4792;50.088;8.122;2023-08-12T15:15:09;3.17;;;2.30;;
9508;SDS011;4792;50.088;8.122;2023-08-12T15:17:37;2.40;;;2.03;;